Time;durP1;ratioP1;P1;durP2;ratioP2;P2;SDS_P1;SDS_P2;PMS_P1;PMS_P2;Temp;Humidity;BMP_temperature;BMP_pressure;BME280_temperature;BME280_humidity;BME280_pressure;Samples;Min_cycle;Max_cycle;Signal;HPM_P1;HPM_P2
2022/11/16 00:00:19;;;;;;;;;1.00;1.00;;;;;21.29;47.80;99722.63;5039434;28;45298;-70
2022/11/16 00:02:45;;;;;;;;;1.00;1.00;;;;;21.34;47.86;99730.00;5044279;28;45355;-70
2022/11/16 00:05:10;;;;;;;;;1.00;1.00;;;;;21.35;48.08;99732.41;5022419;28;47789;-70
2022/11/16 00:07:35;;;;;;;;;0.00;0.00;;;;;21.34;47.90;99725.50;5027048;28;49249;-70
2022/11/16 00:10:00;;;;;;;;;2.00;0.00;;;;;21.34;47.55;99720.19;5017702;28;45296;-70
2022/11/16 00:12:26;;;;;;;;;0.67;0.67;;;;;21.33;47.71;99723.88;5035850;28;45461;-70
2022/11/16 00:14:51;;;;;;;;;2.00;1.00;;;;;21.34;47.64;99730.00;5035482;28;45436;-70
2022/11/16 00:17:16;;;;;;;;;0.33;0.33;;;;;21.31;47.61;99725.91;5034932;28;45841;-70
2022/11/16 00:19:42;;;;;;;;;1.33;1.33;;;;;21.32;47.87;99740.75;5035519;28;48435;-70
2022/11/16 00:22:07;;;;;;;;;1.00;1.00;;;;;21.32;47.87;99735.47;5035444;28;45331;-70
2022/11/16 00:24:33;;;;;;;;;1.00;1.00;;;;;21.31;47.48;99735.69;5035620;28;46173;-70
2022/11/16 00:26:58;;;;;;;;;1.00;1.00;;;;;21.23;47.64;99723.47;5035930;28;45414;-70
2022/11/16 00:29:25;;;;;;;;;1.33;1.33;;;;;21.25;47.94;99718.78;5035272;28;45582;-70
2022/11/16 00:31:51;;;;;;;;;2.67;1.00;;;;;21.29;47.65;99735.88;5035479;28;45393;-70
2022/11/16 00:34:17;;;;;;;;;0.00;0.00;;;;;21.29;47.58;99727.94;5035208;28;45513;-69
2022/11/16 00:36:43;;;;;;;;;0.00;0.00;;;;;21.21;47.30;99710.41;5035258;28;45374;-70
2022/11/16 00:39:12;;;;;;;;;2.33;0.33;;;;;21.27;47.91;99720.22;5035130;28;45388;-70
2022/11/16 00:41:38;;;;;;;;;1.00;1.00;;;;;21.27;47.69;99720.22;5035442;28;46791;-70
2022/11/16 00:44:04;;;;;;;;;1.00;1.00;;;;;21.27;47.88;99725.50;5035184;28;46043;-70
2022/11/16 00:46:29;;;;;;;;;5.00;1.00;;;;;21.27;47.77;99717.56;5034920;28;45456;-70
2022/11/16 00:48:55;;;;;;;;;2.00;1.00;;;;;21.27;48.14;99711.44;5039065;28;45384;-70
2022/11/16 00:51:20;;;;;;;;;2.00;1.00;;;;;21.23;47.44;99713.69;5038623;28;45358;-70
2022/11/16 00:53:45;;;;;;;;;0.00;0.00;;;;;21.23;48.05;99711.06;5038498;28;45420;-70
2022/11/16 00:56:11;;;;;;;;;1.00;1.00;;;;;21.22;47.38;99708.59;5038443;28;45610;-70
2022/11/16 00:58:36;;;;;;;;;1.00;1.00;;;;;21.28;47.77;99718.38;5045586;28;45350;-70
2022/11/16 01:01:04;;;;;;;;;1.33;1.33;;;;;21.27;47.50;99717.56;5038680;28;45291;-70
2022/11/16 01:03:30;;;;;;;;;2.00;0.00;;;;;21.29;47.55;99707.59;5038238;28;46933;-70
2022/11/16 01:06:06;;;;;;;;;0.67;0.67;;;;;21.29;47.32;99702.28;5024336;28;45328;-70
2022/11/16 01:08:34;;;;;;;;;1.00;1.00;;;;;21.28;47.37;99700.69;5038441;28;45323;-70
2022/11/16 01:12:07;;;;;;;;;1.00;1.00;;;;;21.23;47.76;99687.25;5038435;28;45458;-70
2022/11/16 01:13:46;;;;;;;;;1.00;1.00;;;;;21.27;47.74;99685.81;5040285;28;45829;-70
2022/11/16 01:16:16;;;;;;;;;1.00;1.00;;;;;21.27;47.61;99677.88;5038144;28;45291;-70
2022/11/16 01:18:46;;;;;;;;;0.00;0.00;;;;;21.22;47.34;99675.03;5038349;28;45372;-70
2022/11/16 01:21:11;;;;;;;;;0.00;0.00;;;;;21.26;47.57;99686.81;5037937;28;45413;-69
2022/11/16 01:23:36;;;;;;;;;1.00;1.00;;;;;21.23;47.36;99691.72;5038118;28;45343;-70
2022/11/16 01:26:02;;;;;;;;;0.00;0.00;;;;;21.19;47.87;99680.72;5037946;28;45364;-70
2022/11/16 01:28:30;;;;;;;;;0.00;0.00;;;;;21.22;47.70;99696.19;5038194;28;45266;-70
2022/11/16 01:30:56;;;;;;;;;2.00;1.00;;;;;21.23;47.24;99699.66;5038214;28;45323;-70
2022/11/16 01:33:22;;;;;;;;;1.00;1.00;;;;;21.21;47.73;99691.13;5037925;28;46685;-70
2022/11/16 01:35:47;;;;;;;;;0.00;0.00;;;;;21.22;47.65;99698.84;5037629;28;45282;-70
2022/11/16 01:38:13;;;;;;;;;3.00;0.00;;;;;21.23;47.34;99689.06;5038000;28;45473;-70
2022/11/16 01:40:38;;;;;;;;;2.33;0.67;;;;;21.22;47.68;99698.00;5026574;28;45577;-70
2022/11/16 01:43:15;;;;;;;;;0.00;0.00;;;;;21.22;47.67;99696.19;5035002;28;45461;-70
2022/11/16 01:45:41;;;;;;;;;1.00;1.00;;;;;21.22;47.21;99692.72;5037750;28;45408;-70
2022/11/16 01:48:07;;;;;;;;;1.00;1.00;;;;;21.22;47.52;99698.00;5038085;28;45398;-70
2022/11/16 01:50:34;;;;;;;;;0.00;0.00;;;;;21.21;47.59;99702.50;5037805;28;45446;-70
2022/11/16 01:53:02;;;;;;;;;1.00;1.00;;;;;21.19;47.51;99688.66;5037281;28;46371;-70
2022/11/16 01:55:32;;;;;;;;;2.00;1.00;;;;;21.21;47.78;99691.91;5037752;28;45520;-70
2022/11/16 01:57:58;;;;;;;;;2.67;1.00;;;;;21.21;47.16;99694.53;5037147;28;45389;-70
2022/11/16 02:00:23;;;;;;;;;0.33;0.33;;;;;21.13;47.60;99684.19;5037629;28;45619;-70
2022/11/16 02:02:49;;;;;;;;;0.33;0.33;;;;;21.16;47.60;99697.81;5037100;28;46083;-69
2022/11/16 02:05:18;;;;;;;;;1.00;1.00;;;;;21.20;47.42;99703.53;5023838;28;45553;-70
2022/11/16 02:10:49;;;;;;;;;1.00;1.00;;;;;21.20;47.30;99698.22;5037628;28;45362;-70
2022/11/16 02:13:51;;;;;;;;;1.00;1.00;;;;;21.21;47.61;99696.41;5037080;28;45469;-70
2022/11/16 02:16:35;;;;;;;;;0.33;0.33;;;;;21.21;46.96;99696.41;5037660;28;45425;-70
2022/11/16 02:19:43;;;;;;;;;0.67;0.67;;;;;21.21;47.25;99699.06;5037647;28;45350;-70
2022/11/16 02:22:46;;;;;;;;;2.33;1.00;;;;;21.21;47.14;99694.53;5037348;28;45358;-70
2022/11/16 02:25:27;;;;;;;;;2.00;0.00;;;;;21.12;47.23;99669.31;5053085;28;46167;-70
2022/11/16 02:28:23;;;;;;;;;0.67;0.67;;;;;21.22;47.24;99684.78;5035184;28;45469;-70
2022/11/16 02:30:52;;;;;;;;;0.33;0.00;;;;;21.21;47.37;99686.63;5037361;28;45387;-70
2022/11/16 02:33:23;;;;;;;;;0.67;0.67;;;;;21.18;47.57;99679.91;5037229;28;45734;-71
2022/11/16 02:35:53;;;;;;;;;0.00;0.00;;;;;21.20;47.40;99685.00;5037089;28;46391;-70
2022/11/16 02:38:27;;;;;;;;;1.00;1.00;;;;;21.14;47.29;99675.22;5028485;28;45449;-69
2022/11/16 02:41:16;;;;;;;;;0.33;0.33;;;;;21.20;47.27;99678.91;5036276;28;45525;-69
2022/11/16 02:43:45;;;;;;;;;1.00;1.00;;;;;21.15;47.12;99671.56;5025658;28;45418;-70
2022/11/16 02:46:30;;;;;;;;;1.00;1.00;;;;;21.19;47.34;99686.00;5036683;28;47103;-70
2022/11/16 02:48:59;;;;;;;;;1.00;1.00;;;;;21.17;46.88;99669.53;5037193;28;45299;-70
2022/11/16 02:51:27;;;;;;;;;1.00;1.00;;;;;21.17;47.55;99673.00;5036844;28;45559;-70
2022/11/16 02:54:16;;;;;;;;;1.00;1.00;;;;;21.16;47.17;99666.06;5036980;28;45474;-70
2022/11/16 02:56:54;;;;;;;;;2.00;0.00;;;;;21.16;47.05;99671.34;5036317;28;45420;-71
2022/11/16 02:59:23;;;;;;;;;1.00;1.00;;;;;21.16;47.17;99678.47;5036223;28;45397;-70
2022/11/16 03:02:22;;;;;;;;;0.00;0.00;;;;;21.15;47.15;99675.03;5036736;28;45445;-70
2022/11/16 03:04:52;;;;;;;;;0.33;0.33;;;;;21.15;47.37;99688.25;4936226;28;45499;-70
2022/11/16 03:07:24;;;;;;;;;0.67;0.67;;;;;21.17;47.51;99680.13;4936117;28;45444;-70
2022/11/16 03:09:52;;;;;;;;;1.00;0.00;;;;;21.10;47.17;99669.53;4935306;28;45518;-70
2022/11/16 03:12:24;;;;;;;;;0.00;0.00;;;;;21.04;46.97;99652.66;4936472;28;45406;-71
2022/11/16 03:14:54;;;;;;;;;0.00;0.00;;;;;21.16;47.04;99667.88;4935947;28;45480;-70
2022/11/16 03:17:40;;;;;;;;;1.00;1.00;;;;;21.14;47.35;99673.41;4935660;28;47393;-70
2022/11/16 03:20:14;;;;;;;;;1.00;1.00;;;;;21.14;46.98;99668.09;4935732;28;45396;-70
2022/11/16 03:22:50;;;;;;;;;0.33;0.33;;;;;21.12;47.33;99651.63;4935698;28;45489;-70
2022/11/16 03:25:18;;;;;;;;;1.00;1.00;;;;;21.14;46.90;99652.25;4935371;28;45418;-70
2022/11/16 03:27:53;;;;;;;;;1.67;0.67;;;;;21.15;47.27;99648.59;4936756;28;46127;-69
2022/11/16 03:30:22;;;;;;;;;0.67;0.67;;;;;21.05;47.03;99627.03;4936055;28;45513;-70
2022/11/16 03:32:54;;;;;;;;;0.00;0.00;;;;;21.14;47.10;99641.66;4935756;28;45427;-70
2022/11/16 03:35:25;;;;;;;;;1.00;1.00;;;;;21.18;47.36;99634.16;4935988;28;45527;-70
2022/11/16 03:37:55;;;;;;;;;0.00;0.00;;;;;21.06;46.87;99626.81;4935245;28;47063;-70
2022/11/16 03:40:23;;;;;;;;;1.33;1.00;;;;;21.15;46.92;99647.75;4935301;28;45679;-70
2022/11/16 03:42:49;;;;;;;;;1.00;1.00;;;;;21.17;47.18;99645.72;5035010;28;45415;-69
2022/11/16 03:45:17;;;;;;;;;3.00;0.33;;;;;21.18;46.72;99634.94;5035910;28;45358;-70
2022/11/16 03:47:43;;;;;;;;;0.00;0.00;;;;;21.15;47.02;99632.72;5036282;28;47365;-70
2022/11/16 03:50:09;;;;;;;;;1.00;1.00;;;;;21.14;46.92;99625.78;5035591;28;45690;-70
2022/11/16 03:52:35;;;;;;;;;0.33;0.33;;;;;21.19;47.15;99638.41;5036225;28;45398;-70
2022/11/16 03:55:00;;;;;;;;;1.00;1.00;;;;;21.19;46.65;99633.09;5035228;28;45453;-70
2022/11/16 03:57:25;;;;;;;;;0.00;0.00;;;;;21.18;47.18;99634.94;5035880;28;46184;-69
2022/11/16 03:59:51;;;;;;;;;0.00;0.00;;;;;21.17;46.87;99627.22;5035890;28;45593;-70
2022/11/16 04:02:16;;;;;;;;;0.00;0.00;;;;;21.17;47.13;99637.78;5036278;28;45349;-70
2022/11/16 04:24:12;;;;;;;;;0.00;0.00;;;;;21.13;47.21;99637.38;5035327;28;45358;-70
2022/11/16 04:29:24;;;;;;;;;1.00;1.00;;;;;21.12;47.14;99629.66;5035592;28;45919;-70
2022/11/16 04:40:02;;;;;;;;;0.00;0.00;;;;;21.12;46.58;99627.00;5021433;28;45470;-70
2022/11/16 04:42:28;;;;;;;;;0.00;0.00;;;;;21.11;47.07;99623.53;5035607;28;45453;-70
2022/11/16 04:47:37;;;;;;;;;1.33;0.00;;;;;21.12;46.85;99608.50;5031458;28;45304;-70
2022/11/16 04:50:03;;;;;;;;;0.00;0.00;;;;;21.02;46.98;99599.16;5036498;28;45367;-70
2022/11/16 04:52:28;;;;;;;;;1.00;0.00;;;;;21.11;47.17;99609.50;5034799;28;45425;-70
2022/11/16 04:54:53;;;;;;;;;1.00;1.00;;;;;21.11;46.98;99605.03;5035097;28;45456;-70
2022/11/16 04:57:19;;;;;;;;;0.00;0.00;;;;;21.12;46.92;99613.78;5035330;28;45375;-70
2022/11/16 04:59:44;;;;;;;;;1.67;0.33;;;;;21.12;46.64;99619.06;5016364;28;59890;-70
2022/11/16 05:02:09;;;;;;;;;1.00;1.00;;;;;21.13;46.88;99610.13;5035080;28;45437;-70
2022/11/16 05:04:40;;;;;;;;;1.00;0.00;;;;;21.12;47.05;99605.84;5026934;28;45383;-70
2022/11/16 05:07:10;;;;;;;;;0.00;0.00;;;;;21.01;46.77;99586.94;5029763;28;45354;-71
2022/11/16 05:09:41;;;;;;;;;0.00;0.00;;;;;21.12;46.47;99598.75;5034778;28;46095;-70
2022/11/16 05:12:13;;;;;;;;;0.00;0.00;;;;;21.12;47.08;99596.09;5034878;28;45503;-71
2022/11/16 05:14:39;;;;;;;;;1.67;1.00;;;;;20.98;46.60;99579.38;5034936;28;45532;-70
2022/11/16 05:17:04;;;;;;;;;0.00;0.00;;;;;21.13;46.83;99588.97;5035147;28;45193;-70
2022/11/16 05:22:13;;;;;;;;;1.67;1.00;;;;;21.15;47.03;99589.56;5035037;28;45334;-70
2022/11/16 05:24:38;;;;;;;;;2.00;0.67;;;;;21.12;46.51;99571.47;5035021;28;45225;-70
2022/11/16 05:27:10;;;;;;;;;0.00;0.00;;;;;21.16;46.91;99585.91;5035212;28;45437;-70
2022/11/16 05:29:36;;;;;;;;;2.00;1.00;;;;;21.15;46.59;99584.28;5034681;28;45286;-70
2022/11/16 05:32:02;;;;;;;;;1.00;1.00;;;;;21.09;46.92;99572.69;5034851;28;45369;-70
2022/11/16 05:34:28;;;;;;;;;0.00;0.00;;;;;21.14;46.92;99578.19;5037273;28;45454;-70
2022/11/16 05:36:54;;;;;;;;;0.00;0.00;;;;;21.12;46.74;99580.22;5038495;28;45467;-70
2022/11/16 05:39:20;;;;;;;;;0.00;0.00;;;;;21.03;46.50;99558.44;5038044;28;46151;-70
2022/11/16 05:41:46;;;;;;;;;3.00;1.00;;;;;21.11;46.57;99573.28;5038235;28;45310;-70
2022/11/16 05:44:13;;;;;;;;;1.00;0.33;;;;;21.11;46.21;99568.00;5038506;28;45387;-70
2022/11/16 05:46:38;;;;;;;;;1.00;1.00;;;;;21.10;46.69;99563.75;5037693;28;45603;-70
2022/11/16 05:49:06;;;;;;;;;0.00;0.00;;;;;21.10;46.62;99574.34;5043471;28;46247;-70
2022/11/16 05:51:32;;;;;;;;;0.00;0.00;;;;;21.10;46.60;99562.94;5041058;28;45476;-70
2022/11/16 05:53:57;;;;;;;;;1.00;1.00;;;;;21.10;46.70;99560.28;5038008;28;45394;-70
2022/11/16 05:56:22;;;;;;;;;1.33;0.67;;;;;21.10;46.72;99553.16;5037882;28;45282;-70
2022/11/16 05:58:48;;;;;;;;;0.00;0.00;;;;;21.10;46.54;99555.81;5037441;28;47004;-71
2022/11/16 06:01:13;;;;;;;;;0.00;0.00;;;;;21.11;47.13;99557.44;5038039;28;45296;-70
2022/11/16 06:03:38;;;;;;;;;2.00;0.00;;;;;21.04;46.60;99532.81;5036745;28;45343;-69
2022/11/16 06:06:04;;;;;;;;;3.00;1.33;;;;;21.08;46.89;99555.19;5024358;28;45258;-69
2022/11/16 06:08:29;;;;;;;;;0.00;0.00;;;;;21.15;46.88;99560.50;5037566;28;45232;-70
2022/11/16 06:10:55;;;;;;;;;1.00;1.00;;;;;21.10;47.17;99545.25;5037510;28;45395;-69
2022/11/16 06:13:20;;;;;;;;;0.67;0.67;;;;;21.15;47.11;99548.09;5037837;28;45465;-70
2022/11/16 06:15:46;;;;;;;;;0.00;0.00;;;;;21.16;46.90;99552.34;5037377;28;45474;-73
2022/11/16 06:18:11;;;;;;;;;0.00;0.00;;;;;21.17;47.06;99553.97;5036988;28;46961;-70
2022/11/16 06:20:38;;;;;;;;;0.00;0.00;;;;;21.16;47.64;99560.28;5037547;28;45374;-70
2022/11/16 06:23:04;;;;;;;;;0.33;0.33;;;;;21.16;46.98;99547.03;5037975;28;45424;-69
2022/11/16 06:25:30;;;;;;;;;1.00;0.00;;;;;21.18;47.03;99552.16;5037357;28;45378;-70
2022/11/16 06:27:56;;;;;;;;;0.33;0.00;;;;;21.20;47.20;99559.88;5037172;28;47177;-70
2022/11/16 06:30:22;;;;;;;;;0.00;0.00;;;;;21.19;47.17;99564.34;5036803;28;45351;-70
2022/11/16 06:32:47;;;;;;;;;0.67;0.67;;;;;21.09;47.29;99537.50;5036973;28;45351;-70
2022/11/16 06:35:12;;;;;;;;;0.33;0.33;;;;;21.18;47.30;99552.16;5037117;28;45301;-69
2022/11/16 06:37:38;;;;;;;;;1.67;1.00;;;;;21.19;47.48;99545.81;5036909;28;46020;-69
2022/11/16 06:40:04;;;;;;;;;0.00;0.00;;;;;21.19;47.52;99551.09;5037121;28;45363;-70
2022/11/16 06:42:30;;;;;;;;;0.00;0.00;;;;;21.15;47.26;99532.22;5037538;28;45327;-69
2022/11/16 06:44:55;;;;;;;;;0.00;0.00;;;;;21.17;47.36;99534.63;5036071;28;45298;-69
2022/11/16 06:47:20;;;;;;;;;1.00;0.67;;;;;21.14;47.14;99524.47;5036399;28;46088;-70
2022/11/16 06:49:46;;;;;;;;;0.00;0.00;;;;;21.20;47.28;99538.69;5036591;28;45477;-69
2022/11/16 06:52:12;;;;;;;;;0.67;0.67;;;;;21.20;47.23;99525.47;5037327;28;45283;-70
2022/11/16 06:54:37;;;;;;;;;0.67;0.00;;;;;21.18;47.48;99526.47;5036853;28;45437;-70
2022/11/16 06:57:02;;;;;;;;;0.00;0.00;;;;;21.18;47.01;99529.13;5036723;28;45374;-69
2022/11/16 06:59:28;;;;;;;;;2.00;0.67;;;;;21.18;47.19;99536.28;5036491;28;45370;-69
2022/11/16 07:01:53;;;;;;;;;0.00;0.00;;;;;21.17;47.06;99538.09;5036252;28;45432;-69
2022/11/16 07:04:18;;;;;;;;;0.00;0.00;;;;;21.17;47.14;99532.00;5030976;28;45401;-69
2022/11/16 07:06:44;;;;;;;;;0.00;0.00;;;;;21.17;47.08;99535.47;5028774;28;46106;-70
2022/11/16 07:09:09;;;;;;;;;1.00;1.00;;;;;21.17;47.42;99526.69;5036573;28;45475;-70
2022/11/16 07:11:35;;;;;;;;;0.67;0.67;;;;;21.17;46.79;99530.16;5036971;28;45363;-70
2022/11/16 07:14:01;;;;;;;;;1.00;1.00;;;;;21.16;47.17;99530.34;5036309;28;45375;-70
2022/11/16 07:16:26;;;;;;;;;0.33;0.33;;;;;21.11;47.35;99532.81;5036031;28;46800;-69
2022/11/16 07:18:52;;;;;;;;;2.00;0.00;;;;;21.09;46.99;99534.84;5036496;28;45442;-69
2022/11/16 07:21:17;;;;;;;;;1.00;1.00;;;;;21.14;47.20;99549.09;5036389;28;45587;-69
2022/11/16 07:23:43;;;;;;;;;2.00;0.00;;;;;21.10;47.00;99542.59;5035349;28;45564;-68
2022/11/16 07:26:10;;;;;;;;;1.00;1.00;;;;;21.14;47.31;99549.09;5001549;28;47460;-69
2022/11/16 07:28:35;;;;;;;;;2.00;0.67;;;;;21.09;46.94;99543.59;5033411;28;45798;-70
2022/11/16 07:31:11;;;;;;;;;0.00;0.00;;;;;21.12;46.92;99560.88;5035782;28;45437;-69
2022/11/16 07:33:37;;;;;;;;;1.00;0.00;;;;;21.11;46.98;99553.97;5036296;28;45584;-69
2022/11/16 07:36:05;;;;;;;;;1.00;0.00;;;;;21.12;47.26;99552.97;5034020;28;47298;-69
2022/11/16 07:38:32;;;;;;;;;0.00;0.00;;;;;21.06;47.19;99550.13;5035756;28;45501;-69
2022/11/16 07:41:17;;;;;;;;;1.00;1.00;;;;;21.10;46.92;99563.75;5036018;28;45426;-70
2022/11/16 07:43:43;;;;;;;;;0.00;0.00;;;;;21.10;47.39;99555.00;5035880;28;45430;-69
2022/11/16 07:46:16;;;;;;;;;1.00;0.00;;;;;21.09;46.98;99551.53;5035176;28;45382;-69
2022/11/16 07:48:42;;;;;;;;;1.00;1.00;;;;;21.09;46.84;99548.88;5036081;28;45482;-69
2022/11/16 07:51:09;;;;;;;;;0.00;0.00;;;;;21.07;46.97;99543.00;5035631;28;45464;-70
2022/11/16 07:53:35;;;;;;;;;0.00;0.00;;;;;21.01;47.12;99538.50;5035681;28;45339;-69
2022/11/16 07:56:01;;;;;;;;;0.00;0.00;;;;;21.09;46.91;99554.19;5035562;28;47216;-69
2022/11/16 07:58:28;;;;;;;;;0.00;0.00;;;;;21.06;47.16;99544.81;5035491;28;45340;-70
2022/11/16 08:00:53;;;;;;;;;0.00;0.00;;;;;21.10;47.43;99539.94;5034909;28;45438;-69
2022/11/16 08:03:19;;;;;;;;;0.00;0.00;;;;;21.10;46.98;99553.16;5035390;28;45312;-69
2022/11/16 08:05:45;;;;;;;;;0.00;0.00;;;;;21.02;47.38;99538.34;5021612;28;45415;-69
2022/11/16 08:08:11;;;;;;;;;0.67;0.67;;;;;21.12;46.75;99531.78;5034496;28;45439;-69
2022/11/16 08:10:37;;;;;;;;;0.67;0.00;;;;;21.13;47.04;99539.50;5035360;28;45406;-70
2022/11/16 08:13:02;;;;;;;;;1.00;0.00;;;;;21.15;46.76;99544.63;5035148;28;45398;-69
2022/11/16 08:15:28;;;;;;;;;1.00;0.00;;;;;21.15;46.89;99534.84;5034758;28;45904;-69
2022/11/16 08:17:53;;;;;;;;;0.00;0.00;;;;;21.17;47.10;99547.88;5035472;28;45287;-69
2022/11/16 08:20:19;;;;;;;;;0.00;0.00;;;;;21.16;46.90;99533.00;5035155;28;45820;-69
2022/11/16 08:22:44;;;;;;;;;0.00;0.00;;;;;21.16;46.72;99536.47;5016448;28;45356;-69
2022/11/16 08:25:10;;;;;;;;;1.00;0.00;;;;;21.18;46.64;99542.34;5025359;28;47888;-69
2022/11/16 08:27:35;;;;;;;;;2.00;0.00;;;;;21.18;46.85;99537.06;5035318;28;45281;-69
2022/11/16 08:30:02;;;;;;;;;0.00;0.00;;;;;21.14;47.13;99535.03;5016990;28;45521;-69
2022/11/16 08:32:30;;;;;;;;;0.00;0.00;;;;;21.16;46.70;99539.09;5035570;28;45342;-69
2022/11/16 08:34:56;;;;;;;;;0.33;0.33;;;;;21.16;46.86;99536.47;5035298;28;45422;-69
2022/11/16 08:37:21;;;;;;;;;0.00;0.00;;;;;21.11;46.66;99527.50;5034988;28;45307;-70
2022/11/16 08:39:47;;;;;;;;;0.00;0.00;;;;;21.15;47.18;99536.69;5035205;28;45362;-69
2022/11/16 08:42:12;;;;;;;;;0.00;0.00;;;;;21.15;46.84;99541.97;5035421;28;45411;-68
2022/11/16 08:44:38;;;;;;;;;3.00;0.33;;;;;21.08;47.00;99522.66;5034141;28;46517;-68
2022/11/16 08:47:03;;;;;;;;;0.00;0.00;;;;;21.14;46.88;99542.97;5035100;28;45433;-69
2022/11/16 08:49:28;;;;;;;;;1.00;0.33;;;;;21.12;47.07;99543.19;5034789;28;45630;-70
2022/11/16 08:51:54;;;;;;;;;2.00;0.67;;;;;21.12;47.02;99547.66;5034829;28;45497;-67
2022/11/16 08:54:19;;;;;;;;;0.00;0.00;;;;;21.10;46.80;99547.06;5035181;28;46294;-67
2022/11/16 08:56:45;;;;;;;;;1.00;1.00;;;;;21.12;47.12;99545.84;5034725;28;45593;-69
2022/11/16 08:59:11;;;;;;;;;2.67;1.00;;;;;21.08;46.54;99535.88;5034141;28;45466;-70
2022/11/16 09:01:36;;;;;;;;;0.00;0.00;;;;;21.06;46.58;99534.25;5034911;28;45394;-70
2022/11/16 09:04:02;;;;;;;;;1.00;0.67;;;;;21.11;46.84;99544.19;5030874;28;45400;-69
2022/11/16 09:06:27;;;;;;;;;0.67;0.67;;;;;21.10;46.51;99549.72;5024848;28;45271;-69
2022/11/16 09:08:53;;;;;;;;;0.00;0.00;;;;;21.07;46.94;99532.41;5036786;28;45577;-69
2022/11/16 09:11:21;;;;;;;;;0.00;0.00;;;;;21.11;47.13;99533.63;5038255;28;45362;-68
2022/11/16 09:13:49;;;;;;;;;1.33;1.00;;;;;21.14;46.80;99527.09;5037764;28;46175;-68
2022/11/16 09:16:15;;;;;;;;;1.00;1.00;;;;;21.21;46.56;99535.84;5035884;28;45398;-69
2022/11/16 09:18:45;;;;;;;;;0.00;0.00;;;;;21.22;46.50;99526.06;5038247;28;45354;-70
2022/11/16 09:21:11;;;;;;;;;0.00;0.00;;;;;21.23;47.02;99525.06;5038039;28;45501;-69
2022/11/16 09:23:37;;;;;;;;;0.00;0.00;;;;;21.28;46.84;99539.31;5038446;28;46115;-69
2022/11/16 09:26:04;;;;;;;;;0.67;0.67;;;;;21.31;46.64;99535.44;5037961;28;45406;-69
2022/11/16 09:28:30;;;;;;;;;1.00;0.67;;;;;21.33;46.49;99536.03;5038028;28;45449;-69
2022/11/16 09:31:00;;;;;;;;;0.00;0.00;;;;;21.36;46.64;99540.91;5037864;28;45275;-69
2022/11/16 09:33:28;;;;;;;;;0.00;0.00;;;;;21.34;46.81;99534.22;5037803;28;46073;-68
2022/11/16 09:35:53;;;;;;;;;1.33;0.00;;;;;21.28;46.81;99515.50;5037850;28;45683;-69
2022/11/16 09:38:18;;;;;;;;;0.00;0.00;;;;;21.42;46.77;99535.81;5038153;28;45421;-70
2022/11/16 09:40:45;;;;;;;;;1.67;0.00;;;;;21.44;46.14;99545.16;5038018;28;45329;-70
2022/11/16 09:43:16;;;;;;;;;0.00;0.00;;;;;21.45;46.21;99541.47;5037844;28;45386;-69
2022/11/16 09:45:47;;;;;;;;;0.00;0.00;;;;;21.47;46.22;99546.56;5037829;28;45425;-69
2022/11/16 09:48:15;;;;;;;;;0.00;0.00;;;;;21.43;46.13;99540.88;5037819;28;45366;-68
2022/11/16 09:50:47;;;;;;;;;0.00;0.00;;;;;21.49;46.39;99542.69;5037845;28;45557;-70
2022/11/16 09:53:18;;;;;;;;;0.00;0.00;;;;;21.50;46.15;99539.03;5037241;28;45460;-69
2022/11/16 09:55:50;;;;;;;;;2.00;0.00;;;;;21.51;46.06;99542.50;5016004;28;45368;-69
2022/11/16 09:58:26;;;;;;;;;1.00;1.00;;;;;21.52;46.01;99547.56;5033864;28;45496;-69
2022/11/16 10:01:02;;;;;;;;;0.00;0.00;;;;;21.52;46.50;99557.34;5037293;28;45398;-69
2022/11/16 10:03:34;;;;;;;;;0.00;0.00;;;;;21.51;46.10;99553.91;5037537;28;45509;-69
2022/11/16 10:06:04;;;;;;;;;0.00;0.00;;;;;21.53;46.06;99556.31;5032114;28;45466;-70
2022/11/16 10:08:45;;;;;;;;;0.00;0.00;;;;;21.48;46.38;99546.38;5037785;28;45299;-67
2022/11/16 10:11:38;;;;;;;;;1.00;1.00;;;;;21.57;46.15;99562.81;5037369;28;45514;-69
2022/11/16 10:14:41;;;;;;;;;2.00;1.00;;;;;21.57;45.99;99554.88;5036851;28;46233;-69
2022/11/16 10:17:21;;;;;;;;;0.67;0.67;;;;;21.59;46.36;99554.69;5036910;28;45444;-69
2022/11/16 10:19:55;;;;;;;;;0.00;0.00;;;;;21.51;46.12;99540.66;5037248;28;45394;-69
2022/11/16 10:22:48;;;;;;;;;1.00;1.00;;;;;21.53;46.24;99535.16;5037213;28;45433;-69
2022/11/16 10:25:36;;;;;;;;;3.00;1.00;;;;;21.46;46.29;99516.66;5036841;28;45453;-69
2022/11/16 10:28:20;;;;;;;;;0.00;0.00;;;;;21.56;46.41;99534.75;5036994;28;45333;-69
2022/11/16 10:31:15;;;;;;;;;0.00;0.00;;;;;21.57;46.03;99539.00;5037036;28;45505;-69
2022/11/16 10:33:44;;;;;;;;;0.00;0.00;;;;;21.50;46.40;99520.50;5019402;28;45565;-69
2022/11/16 10:36:13;;;;;;;;;1.67;0.00;;;;;21.56;46.32;99529.44;5036798;28;47127;-69
2022/11/16 10:38:39;;;;;;;;;1.00;0.00;;;;;21.49;46.27;99523.38;5037041;28;45530;-70
2022/11/16 10:41:38;;;;;;;;;2.67;1.00;;;;;21.58;45.86;99531.88;5046197;28;45417;-70
2022/11/16 10:44:16;;;;;;;;;0.00;0.00;;;;;21.58;46.63;99529.22;5036890;28;45489;-70
2022/11/16 10:46:52;;;;;;;;;0.00;0.00;;;;;21.50;45.94;99511.75;5036364;28;47203;-69
2022/11/16 10:49:41;;;;;;;;;0.00;0.00;;;;;21.58;46.26;99521.28;5036892;28;46849;-69
2022/11/16 10:52:06;;;;;;;;;2.33;0.00;;;;;21.57;46.05;99525.75;4936307;28;45499;-69
2022/11/16 10:54:32;;;;;;;;;0.00;0.00;;;;;21.52;46.39;99510.50;4935797;28;45502;-69
2022/11/16 10:57:12;;;;;;;;;0.00;0.00;;;;;21.56;46.15;99515.41;4935850;28;46183;-69
2022/11/16 10:59:47;;;;;;;;;0.00;0.00;;;;;21.58;46.32;99500.13;4935806;28;45650;-69
2022/11/16 11:02:26;;;;;;;;;2.67;0.67;;;;;21.57;46.37;99501.16;4936217;28;45560;-69
2022/11/16 11:05:00;;;;;;;;;1.00;1.00;;;;;21.58;46.43;99508.88;4936439;28;45531;-70
2022/11/16 11:07:32;;;;;;;;;0.00;0.00;;;;;21.56;46.53;99499.50;4942883;28;47246;-69
2022/11/16 11:09:58;;;;;;;;;0.00;0.00;;;;;21.55;45.80;99498.69;4935529;28;45450;-69
2022/11/16 11:12:38;;;;;;;;;1.00;0.00;;;;;21.56;46.36;99500.34;4936338;28;45654;-68
2022/11/16 11:15:03;;;;;;;;;2.00;0.67;;;;;21.58;46.01;99500.13;4929224;28;46036;-68
2022/11/16 11:17:31;;;;;;;;;1.00;1.00;;;;;21.58;45.88;99505.41;4932267;28;46092;-69
2022/11/16 11:20:19;;;;;;;;;0.00;0.00;;;;;21.58;45.95;99505.41;4935826;28;45402;-68
2022/11/16 11:22:54;;;;;;;;;0.00;0.00;;;;;21.45;45.94;99474.53;4935362;28;45476;-68
2022/11/16 11:25:25;;;;;;;;;0.33;0.33;;;;;21.57;46.24;99499.28;4936002;28;45439;-70
2022/11/16 11:28:06;;;;;;;;;0.00;0.00;;;;;21.56;45.78;99499.50;4935827;28;47307;-69
2022/11/16 11:30:33;;;;;;;;;0.00;0.00;;;;;21.55;45.84;99487.28;5027901;28;45411;-69
2022/11/16 11:32:59;;;;;;;;;1.00;0.00;;;;;21.53;45.96;99490.16;5036377;28;45420;-69
2022/11/16 11:35:28;;;;;;;;;3.00;1.00;;;;;21.54;46.03;99486.50;5036138;28;45368;-69
2022/11/16 11:37:57;;;;;;;;;3.00;0.00;;;;;21.54;46.06;99477.75;5035637;28;46052;-70
2022/11/16 11:40:25;;;;;;;;;0.00;0.00;;;;;21.54;46.51;99480.41;5036203;28;45371;-70
2022/11/16 11:42:56;;;;;;;;;0.00;0.00;;;;;21.55;45.95;99476.72;5036120;28;45319;-70
2022/11/16 11:45:29;;;;;;;;;0.00;0.00;;;;;21.56;46.42;99478.34;5036040;28;45452;-69
2022/11/16 11:47:57;;;;;;;;;0.67;0.67;;;;;21.56;46.38;99481.81;5035595;28;45335;-69
2022/11/16 11:50:48;;;;;;;;;0.00;0.00;;;;;21.56;46.25;99475.69;5035447;28;45378;-70
2022/11/16 11:53:34;;;;;;;;;0.67;0.00;;;;;21.56;46.34;99481.81;5035473;28;45405;-69
2022/11/16 11:56:00;;;;;;;;;0.33;0.00;;;;;21.55;46.27;99476.72;5035767;28;45444;-69
2022/11/16 11:58:30;;;;;;;;;0.00;0.00;;;;;21.55;45.91;99474.06;5035538;28;46027;-69
2022/11/16 12:01:26;;;;;;;;;0.00;0.00;;;;;21.55;45.89;99463.47;5035563;28;45295;-69
2022/11/16 12:04:06;;;;;;;;;0.67;0.67;;;;;21.54;46.31;99460.03;5033559;28;45469;-69
2022/11/16 12:06:54;;;;;;;;;0.00;0.00;;;;;21.54;45.77;99462.69;5025631;28;45411;-69
2022/11/16 12:09:28;;;;;;;;;0.33;0.00;;;;;21.52;45.88;99447.00;5034636;28;46195;-72
2022/11/16 12:12:16;;;;;;;;;0.00;0.00;;;;;21.52;46.42;99444.34;5035957;28;45343;-71
2022/11/16 12:15:16;;;;;;;;;0.33;0.33;;;;;21.46;46.11;99432.00;5032679;28;45367;-71
2022/11/16 12:18:04;;;;;;;;;0.00;0.00;;;;;21.51;46.30;99445.41;5029791;28;45406;-69
2022/11/16 12:20:56;;;;;;;;;0.33;0.33;;;;;21.48;46.41;99432.59;5035114;28;46301;-70
2022/11/16 12:23:55;;;;;;;;;1.00;0.00;;;;;21.52;45.96;99439.06;5034576;28;45623;-70
2022/11/16 12:26:36;;;;;;;;;2.00;0.00;;;;;21.51;46.09;99440.09;5031325;28;45447;-71